Aeroporto :
LOGIN :

Iscrizione | Disclaimer

   EN    FR    IT 

 










Sommario :    VFR   VFR Marginale   IFR   IFR Intensivo   IFR Molto Intensivo
Visibilità : 
Base nubi : 
>= 8 km
>= 3000ft
5 / 8 km
1000 / 3000 ft
1500m / 5 km
500 / 1000 ft
800 / 1500m
200 / 500 ft
< 800m
< 200 ft
Simboli :   Temporali  Nebbia  Neve Forte  Precipitazioni Forti  Vento > 20 kt
SIGMETs :   Varie  Temporali  Ghiacco  Turbolenza  Onda orograficha  Ceneri Vulcaniche






- Altitudine del aeroporto : 83 ft
- Codice IATA : LHR


EGLL - London Heathrow

ULTIMO METAR :
  • 151720Z AUTO 01010KT 330V040 9999 FEW033 BKN040 08/05 Q1002 TEMPO RA

METARs OBSOLETI :
  • 151650Z AUTO 01009KT 330V060 9999 -RA SCT027 BKN036 BKN046 08/05 Q1002 TEMPO RA
  • 151620Z AUTO 01009KT 9999 SCT026/// //////TCU 08/05 Q1002 NOSIG
  • 151550Z AUTO 01008KT 330V050 9999 NCD 08/05 Q1002 NOSIG
  • 151520Z AUTO 01010KT 340V050 9999 FEW029 08/05 Q1002 NOSIG
  • 151450Z AUTO 01011KT 320V040 9999 FEW022 OVC045 08/06 Q1002

TAF TAF EGLL
Valido dal 15 a 18 ore il 17 a 00 ore UTC


151704Z 1518/1624 01012KT 9999 SCT030
TEMPO 1518/1524 8000 RA BKN012
PROB30
TEMPO 1518/1524 4000 SHRA BKN009
BECMG 1601/1604 07006KT
BECMG 1621/1624 7000



MetMap, La meteo Aeronautica in un colpo d'occhio ! - Copyright ORBIFLY Dicembre 2007 - Disclaimer

ORBIFLY MET'MAP TEAM :

Programmazione e sviluppo : Alexandra Zaïnal
Concezione e sviluppo : Baudouin d'Aumeries
Co-Programmazione e sviluppo : Marc-Olivier Méhu
Supporto tecnico e logistico : Manuel Goepfert
Aiuto per la traduzione : Arnaldo La Scala

Contatto : metmap@orbifly.com




FONTI E CREDITI :

   NOAA